Barachois, Canada
Current Conditions -  °F | °C
As of 6:00 PM on Thursday 18 Dec 2014 (Local Time) from CYGP Reporting Station
Light Snow Light Snow  
Wind Chill: 20°   Ceiling: 500
Heat Index: 28°   Visibility: 3mi
Dew Point: 27°   Wind: 9mph
Humidity: 93%   Direction: 340°NNW
Pressure: 29.58"   Gusts: 20mph
Location:  48.62°N, 64.28°W
Report Text: CYGP 182300Z 34008G17KT 3SM -SN VV005 M02/M03 A2958 RMK SN8 SLP019
Loading
Personal Weather Stations






























Interactive Weather Map New forecast layout! Learn more

10-Day Weather Forecast

Advertisements
Track Severe Weather on mobile